Regional Weather

 

KMKL - Jackson, TN, USA
Distance from station: WNW 50mi, 81km
Updated: Fri, Oct-19-2018 5:53am CDT
Clear
Clear
 Wind from calm
Wind: Calm
Temperature: 41°F , 5°C
Dew Point: 39°F , 4°C
Humidity: 93%
Barometer: 30.28 inHg , 1025.4 hPa
Clouds: Clear
Visibility: 10 miles , 16 km
2018/10/19 10:53 KMKL 191053Z AUTO 00000KT 10SM CLR 05/04 A3028 RMK AO2 SLP253 T00500044 $
KMEM - Memphis, TN, USA
Distance from station: W 108mi, 173km
Updated: Fri, Oct-19-2018 5:54am CDT
Mostly cloudy
Mostly cloudy
 Wind from E
Wind: E 5 mph , 7 km/h
Temperature: 50°F , 10°C
Wind Chill: 48°F , 9°C
Dew Point: 43°F , 6°C
Humidity: 76%
Barometer: 30.26 inHg , 1024.7 hPa
Clouds: Mostly cloudy
Visibility: 10 miles , 16 km
Cloud details: Mostly cloudy 25000 ft
2018/10/19 10:54 KMEM 191054Z 09004KT 10SM BKN250 10/06 A3026 RMK AO2 SLP246 T01000061
 
KBNA - Nashville, TN, USA
Distance from station: NE 97mi, 157km
Updated: Fri, Oct-19-2018 5:53am CDT
Clear
Clear
 Wind from calm
Wind: Calm
Temperature: 41°F , 5°C
Dew Point: 37°F , 3°C
Humidity: 87%
Barometer: 30.31 inHg , 1026.4 hPa
Clouds: Clear
Visibility: 10 miles , 16 km
2018/10/19 10:53 KBNA 191053Z 00000KT 10SM CLR 05/03 A3031 RMK AO2 SLP262 T00500033 $
KCKV - Clarksville, TN, USA
Distance from station: NNE 99mi, 159km
Updated: Fri, Oct-19-2018 5:52am CDT
Clear
Clear
 Wind from calm
Wind: Calm
Temperature: 37°F , 3°C
Dew Point: 36°F , 2°C
Humidity: 93%
Barometer: 30.30 inHg , 1026.1 hPa
Clouds: Clear
Visibility: 10 miles , 16 km
2018/10/19 10:52 KCKV 191052Z AUTO 00000KT 10SM CLR 03/02 A3030 RMK AO2 SLP260 T00330017
 
KPAH - Paducah, KY, USA
Distance from station: NNW 128mi, 205km
Updated: Fri, Oct-19-2018 5:53am CDT
Clear
Clear
 Wind from calm
Wind: Calm
Temperature: 37°F , 3°C
Dew Point: 36°F , 2°C
Humidity: 93%
Barometer: 30.27 inHg , 1025.1 hPa
Clouds: Clear
Visibility: 9 miles , 14 km
2018/10/19 10:53 KPAH 191053Z 00000KT 9SM CLR 03/02 A3027 RMK AO2 SLP249 T00280017
KCHA - Chattanooga, TN, USA
Distance from station: E 165mi, 265km
Updated: Fri, Oct-19-2018 5:53am CDT
Partly cloudy
Partly cloudy
 Wind from calm
Wind: Calm
Temperature: 46°F , 8°C
Dew Point: 43°F , 6°C
Humidity: 87%
Barometer: 30.35 inHg , 1027.8 hPa
Clouds: Partly cloudy
Visibility: 10 miles , 16 km
Cloud details: Partly cloudy 25000 ft
2018/10/19 10:53 KCHA 191053Z 00000KT 10SM SCT250 08/06 A3035 RMK AO2 SLP274 T00780061
 
KTYS - Knoxville, TN, USA
Distance from station: E 234mi, 377km
Updated: Fri, Oct-19-2018 5:53am CDT
Few Clouds
Few Clouds
 Wind from ENE
Wind: ENE 3 mph , 6 km/h
Temperature: 43°F , 6°C
Dew Point: 41°F , 5°C
Humidity: 93%
Barometer: 30.33 inHg , 1027.1 hPa
Clouds: Few Clouds
Visibility: 10 miles , 16 km
Cloud details: Few Clouds 20000 ft
2018/10/19 10:53 KTYS 191053Z 07003KT 10SM FEW200 06/05 A3033 RMK AO2 SLP271 T00560050
KLIT - Little Rock, AR, USA
Distance from station: W 240mi, 386km
Updated: Fri, Oct-19-2018 5:53am CDT
Partly cloudy
Partly cloudy
 Wind from N
Wind: N 3 mph , 6 km/h
Temperature: 48°F , 9°C
Dew Point: 45°F , 7°C
Humidity: 87%
Barometer: 30.27 inHg , 1025.1 hPa
Clouds: Partly cloudy
Visibility: 10 miles , 16 km
Cloud details: Partly cloudy 15000 ft
2018/10/19 10:53 KLIT 191053Z 36003KT 10SM SCT150 09/07 A3027 RMK AO2 SLP253 T00890067 $

Refresh Page for latest data.